sensor_id;sensor_type;location;lat;lon;timestamp;P1;durP1;ratioP1;P2;durP2;ratioP2
69172;SDS011;56280;49.662;8.408;2022-08-01T00:01:33;6.15;;;2.35;;
69172;SDS011;56280;49.662;8.408;2022-08-01T00:03:58;5.30;;;2.70;;
69172;SDS011;56280;49.662;8.408;2022-08-01T00:06:24;6.13;;;2.85;;
69172;SDS011;56280;49.662;8.408;2022-08-01T00:08:50;6.53;;;2.20;;
69172;SDS011;56280;49.662;8.408;2022-08-01T00:11:15;5.37;;;2.13;;
69172;SDS011;56280;49.662;8.408;2022-08-01T00:13:40;5.63;;;1.90;;
69172;SDS011;56280;49.662;8.408;2022-08-01T00:16:06;4.90;;;2.40;;
69172;SDS011;56280;49.662;8.408;2022-08-01T00:18:31;3.97;;;1.97;;
69172;SDS011;56280;49.662;8.408;2022-08-01T00:20:56;4.13;;;1.73;;
69172;SDS011;56280;49.662;8.408;2022-08-01T00:23:22;5.70;;;1.60;;
69172;SDS011;56280;49.662;8.408;2022-08-01T00:25:47;3.07;;;1.60;;
69172;SDS011;56280;49.662;8.408;2022-08-01T00:28:12;3.47;;;1.47;;
69172;SDS011;56280;49.662;8.408;2022-08-01T00:30:38;3.55;;;1.70;;
69172;SDS011;56280;49.662;8.408;2022-08-01T00:33:04;3.80;;;1.67;;
69172;SDS011;56280;49.662;8.408;2022-08-01T00:35:29;3.40;;;1.83;;
69172;SDS011;56280;49.662;8.408;2022-08-01T00:37:55;5.27;;;1.60;;
69172;SDS011;56280;49.662;8.408;2022-08-01T00:40:20;4.50;;;1.47;;
69172;SDS011;56280;49.662;8.408;2022-08-01T00:42:46;4.25;;;1.90;;
69172;SDS011;56280;49.662;8.408;2022-08-01T00:45:11;3.78;;;1.85;;
69172;SDS011;56280;49.662;8.408;2022-08-01T00:47:36;2.67;;;1.30;;
69172;SDS011;56280;49.662;8.408;2022-08-01T00:50:05;4.22;;;1.60;;
69172;SDS011;56280;49.662;8.408;2022-08-01T00:52:32;4.13;;;1.58;;
69172;SDS011;56280;49.662;8.408;2022-08-01T00:54:58;3.08;;;1.42;;
69172;SDS011;56280;49.662;8.408;2022-08-01T00:57:23;2.70;;;1.40;;
69172;SDS011;56280;49.662;8.408;2022-08-01T00:59:49;3.60;;;1.80;;
69172;SDS011;56280;49.662;8.408;2022-08-01T01:02:14;2.70;;;1.10;;
69172;SDS011;56280;49.662;8.408;2022-08-01T01:04:41;5.25;;;1.60;;
69172;SDS011;56280;49.662;8.408;2022-08-01T01:07:16;3.55;;;1.65;;
69172;SDS011;56280;49.662;8.408;2022-08-01T01:09:54;3.83;;;1.80;;
69172;SDS011;56280;49.662;8.408;2022-08-01T01:12:27;3.40;;;1.50;;
69172;SDS011;56280;49.662;8.408;2022-08-01T01:15:10;5.18;;;1.80;;
69172;SDS011;56280;49.662;8.408;2022-08-01T01:17:46;3.88;;;1.67;;
69172;SDS011;56280;49.662;8.408;2022-08-01T01:20:16;2.90;;;1.40;;
69172;SDS011;56280;49.662;8.408;2022-08-01T01:22:47;3.83;;;1.30;;
69172;SDS011;56280;49.662;8.408;2022-08-01T01:25:39;3.67;;;1.65;;
69172;SDS011;56280;49.662;8.408;2022-08-01T01:30:56;3.72;;;1.75;;
69172;SDS011;56280;49.662;8.408;2022-08-01T01:33:23;3.78;;;1.35;;
69172;SDS011;56280;49.662;8.408;2022-08-01T01:35:57;2.97;;;1.30;;
69172;SDS011;56280;49.662;8.408;2022-08-01T01:38:29;3.72;;;1.38;;
69172;SDS011;56280;49.662;8.408;2022-08-01T01:40:58;3.63;;;1.60;;
69172;SDS011;56280;49.662;8.408;2022-08-01T01:43:26;3.50;;;1.30;;
69172;SDS011;56280;49.662;8.408;2022-08-01T01:45:54;3.33;;;1.50;;
69172;SDS011;56280;49.662;8.408;2022-08-01T01:48:20;4.93;;;1.40;;
69172;SDS011;56280;49.662;8.408;2022-08-01T01:50:48;4.75;;;1.45;;
69172;SDS011;56280;49.662;8.408;2022-08-01T01:53:16;3.17;;;1.33;;
69172;SDS011;56280;49.662;8.408;2022-08-01T01:55:45;3.13;;;1.40;;
69172;SDS011;56280;49.662;8.408;2022-08-01T01:58:14;2.97;;;1.60;;
69172;SDS011;56280;49.662;8.408;2022-08-01T02:00:42;5.20;;;1.60;;
69172;SDS011;56280;49.662;8.408;2022-08-01T02:03:09;3.13;;;1.25;;
69172;SDS011;56280;49.662;8.408;2022-08-01T02:05:37;2.95;;;1.30;;
69172;SDS011;56280;49.662;8.408;2022-08-01T02:08:03;3.38;;;1.60;;
69172;SDS011;56280;49.662;8.408;2022-08-01T02:10:30;3.13;;;1.60;;
69172;SDS011;56280;49.662;8.408;2022-08-01T02:12:57;4.38;;;1.48;;
69172;SDS011;56280;49.662;8.408;2022-08-01T02:15:24;2.92;;;1.30;;
69172;SDS011;56280;49.662;8.408;2022-08-01T02:17:51;2.80;;;1.40;;
69172;SDS011;56280;49.662;8.408;2022-08-01T02:20:19;2.65;;;1.60;;
69172;SDS011;56280;49.662;8.408;2022-08-01T02:23:00;2.87;;;1.40;;
69172;SDS011;56280;49.662;8.408;2022-08-01T02:25:32;4.75;;;1.70;;
69172;SDS011;56280;49.662;8.408;2022-08-01T02:30:46;3.08;;;1.30;;
69172;SDS011;56280;49.662;8.408;2022-08-01T02:33:48;3.00;;;1.40;;
69172;SDS011;56280;49.662;8.408;2022-08-01T02:36:09;2.80;;;1.20;;
69172;SDS011;56280;49.662;8.408;2022-08-01T02:38:37;3.30;;;1.65;;
69172;SDS011;56280;49.662;8.408;2022-08-01T02:41:07;3.20;;;1.58;;
69172;SDS011;56280;49.662;8.408;2022-08-01T02:43:36;2.78;;;1.63;;
69172;SDS011;56280;49.662;8.408;2022-08-01T02:46:04;3.60;;;1.23;;
69172;SDS011;56280;49.662;8.408;2022-08-01T02:48:32;3.40;;;1.40;;
69172;SDS011;56280;49.662;8.408;2022-08-01T02:51:00;4.00;;;1.63;;
69172;SDS011;56280;49.662;8.408;2022-08-01T02:53:27;2.90;;;1.60;;
69172;SDS011;56280;49.662;8.408;2022-08-01T02:55:55;3.40;;;1.67;;
69172;SDS011;56280;49.662;8.408;2022-08-01T02:58:23;3.50;;;1.40;;
69172;SDS011;56280;49.662;8.408;2022-08-01T03:00:49;3.70;;;1.30;;
69172;SDS011;56280;49.662;8.408;2022-08-01T03:03:16;2.97;;;1.30;;
69172;SDS011;56280;49.662;8.408;2022-08-01T03:05:43;3.83;;;1.60;;
69172;SDS011;56280;49.662;8.408;2022-08-01T03:08:09;3.50;;;1.67;;
69172;SDS011;56280;49.662;8.408;2022-08-01T03:10:38;3.37;;;1.60;;
69172;SDS011;56280;49.662;8.408;2022-08-01T03:13:07;3.95;;;1.42;;
69172;SDS011;56280;49.662;8.408;2022-08-01T03:15:36;5.18;;;1.60;;
69172;SDS011;56280;49.662;8.408;2022-08-01T03:18:05;4.15;;;1.90;;
69172;SDS011;56280;49.662;8.408;2022-08-01T03:20:32;3.95;;;1.63;;
69172;SDS011;56280;49.662;8.408;2022-08-01T03:22:59;3.67;;;1.88;;
69172;SDS011;56280;49.662;8.408;2022-08-01T03:25:28;3.05;;;1.50;;
69172;SDS011;56280;49.662;8.408;2022-08-01T03:27:56;4.88;;;1.75;;
69172;SDS011;56280;49.662;8.408;2022-08-01T03:30:24;3.20;;;1.55;;
69172;SDS011;56280;49.662;8.408;2022-08-01T03:32:51;4.38;;;1.48;;
69172;SDS011;56280;49.662;8.408;2022-08-01T03:35:17;4.22;;;1.50;;
69172;SDS011;56280;49.662;8.408;2022-08-01T03:37:47;5.23;;;1.57;;
69172;SDS011;56280;49.662;8.408;2022-08-01T03:42:58;3.60;;;1.73;;
69172;SDS011;56280;49.662;8.408;2022-08-01T03:45:29;3.45;;;1.73;;
69172;SDS011;56280;49.662;8.408;2022-08-01T03:47:59;3.38;;;1.38;;
69172;SDS011;56280;49.662;8.408;2022-08-01T03:50:27;4.35;;;1.75;;
69172;SDS011;56280;49.662;8.408;2022-08-01T03:52:54;5.03;;;1.77;;
69172;SDS011;56280;49.662;8.408;2022-08-01T03:55:23;2.97;;;1.65;;
69172;SDS011;56280;49.662;8.408;2022-08-01T03:57:50;3.67;;;1.60;;
69172;SDS011;56280;49.662;8.408;2022-08-01T04:00:16;3.92;;;1.85;;
69172;SDS011;56280;49.662;8.408;2022-08-01T04:02:44;3.45;;;1.63;;
69172;SDS011;56280;49.662;8.408;2022-08-01T04:05:12;4.05;;;1.73;;
69172;SDS011;56280;49.662;8.408;2022-08-01T04:07:37;3.20;;;1.77;;
69172;SDS011;56280;49.662;8.408;2022-08-01T04:10:04;3.58;;;1.70;;
69172;SDS011;56280;49.662;8.408;2022-08-01T04:12:30;3.20;;;1.73;;
69172;SDS011;56280;49.662;8.408;2022-08-01T04:14:55;3.50;;;1.60;;
69172;SDS011;56280;49.662;8.408;2022-08-01T04:17:20;5.07;;;1.63;;
69172;SDS011;56280;49.662;8.408;2022-08-01T04:19:46;4.20;;;1.80;;
69172;SDS011;56280;49.662;8.408;2022-08-01T04:22:11;4.37;;;1.87;;
69172;SDS011;56280;49.662;8.408;2022-08-01T04:24:39;3.75;;;1.60;;
69172;SDS011;56280;49.662;8.408;2022-08-01T04:27:09;4.60;;;2.08;;
69172;SDS011;56280;49.662;8.408;2022-08-01T04:29:38;3.65;;;1.58;;
69172;SDS011;56280;49.662;8.408;2022-08-01T04:32:05;3.65;;;1.58;;
69172;SDS011;56280;49.662;8.408;2022-08-01T04:34:34;3.77;;;1.80;;
69172;SDS011;56280;49.662;8.408;2022-08-01T04:37:02;3.70;;;1.45;;
69172;SDS011;56280;49.662;8.408;2022-08-01T04:39:30;3.25;;;1.60;;
69172;SDS011;56280;49.662;8.408;2022-08-01T04:41:58;4.38;;;1.60;;
69172;SDS011;56280;49.662;8.408;2022-08-01T04:44:25;3.85;;;1.70;;
69172;SDS011;56280;49.662;8.408;2022-08-01T04:46:52;5.17;;;1.90;;
69172;SDS011;56280;49.662;8.408;2022-08-01T04:49:19;5.45;;;2.00;;
69172;SDS011;56280;49.662;8.408;2022-08-01T04:51:49;4.32;;;1.83;;
69172;SDS011;56280;49.662;8.408;2022-08-01T04:54:15;4.07;;;2.60;;
69172;SDS011;56280;49.662;8.408;2022-08-01T04:56:41;3.23;;;1.70;;
69172;SDS011;56280;49.662;8.408;2022-08-01T04:59:06;3.17;;;1.67;;
69172;SDS011;56280;49.662;8.408;2022-08-01T05:01:50;3.92;;;2.00;;
69172;SDS011;56280;49.662;8.408;2022-08-01T05:04:15;4.33;;;1.90;;
69172;SDS011;56280;49.662;8.408;2022-08-01T05:06:41;6.40;;;2.53;;
69172;SDS011;56280;49.662;8.408;2022-08-01T05:09:06;5.27;;;2.17;;
69172;SDS011;56280;49.662;8.408;2022-08-01T05:11:31;4.80;;;1.67;;
69172;SDS011;56280;49.662;8.408;2022-08-01T05:13:56;4.27;;;1.60;;
69172;SDS011;56280;49.662;8.408;2022-08-01T05:16:22;5.07;;;1.83;;
69172;SDS011;56280;49.662;8.408;2022-08-01T05:18:47;3.10;;;1.50;;
69172;SDS011;56280;49.662;8.408;2022-08-01T05:21:12;3.00;;;1.90;;
69172;SDS011;56280;49.662;8.408;2022-08-01T05:23:38;4.27;;;2.00;;
69172;SDS011;56280;49.662;8.408;2022-08-01T05:26:03;7.00;;;2.10;;
69172;SDS011;56280;49.662;8.408;2022-08-01T05:28:29;3.78;;;1.85;;
69172;SDS011;56280;49.662;8.408;2022-08-01T05:30:55;7.63;;;1.90;;
69172;SDS011;56280;49.662;8.408;2022-08-01T05:33:20;5.17;;;1.97;;
69172;SDS011;56280;49.662;8.408;2022-08-01T05:35:46;5.15;;;1.70;;
69172;SDS011;56280;49.662;8.408;2022-08-01T05:38:11;5.07;;;1.63;;
69172;SDS011;56280;49.662;8.408;2022-08-01T05:40:37;5.77;;;1.80;;
69172;SDS011;56280;49.662;8.408;2022-08-01T05:43:02;7.77;;;1.80;;
69172;SDS011;56280;49.662;8.408;2022-08-01T05:45:27;4.17;;;1.93;;
69172;SDS011;56280;49.662;8.408;2022-08-01T05:47:52;3.80;;;1.63;;
69172;SDS011;56280;49.662;8.408;2022-08-01T05:50:18;4.60;;;1.57;;
69172;SDS011;56280;49.662;8.408;2022-08-01T05:52:43;4.50;;;1.50;;
69172;SDS011;56280;49.662;8.408;2022-08-01T05:55:08;4.77;;;1.43;;
69172;SDS011;56280;49.662;8.408;2022-08-01T05:57:34;4.13;;;1.50;;
69172;SDS011;56280;49.662;8.408;2022-08-01T05:59:59;3.58;;;1.50;;
69172;SDS011;56280;49.662;8.408;2022-08-01T06:02:24;4.10;;;1.73;;
69172;SDS011;56280;49.662;8.408;2022-08-01T06:04:50;4.32;;;1.70;;
69172;SDS011;56280;49.662;8.408;2022-08-01T06:07:15;3.87;;;1.30;;
69172;SDS011;56280;49.662;8.408;2022-08-01T06:09:40;4.63;;;1.70;;
69172;SDS011;56280;49.662;8.408;2022-08-01T06:12:06;3.20;;;1.27;;
69172;SDS011;56280;49.662;8.408;2022-08-01T06:14:31;4.10;;;1.50;;
69172;SDS011;56280;49.662;8.408;2022-08-01T06:16:56;3.30;;;1.50;;
69172;SDS011;56280;49.662;8.408;2022-08-01T06:19:22;4.20;;;1.60;;
69172;SDS011;56280;49.662;8.408;2022-08-01T06:21:47;5.67;;;1.60;;
69172;SDS011;56280;49.662;8.408;2022-08-01T06:24:12;4.35;;;1.40;;
69172;SDS011;56280;49.662;8.408;2022-08-01T06:26:38;3.95;;;1.40;;
69172;SDS011;56280;49.662;8.408;2022-08-01T06:29:03;4.30;;;1.50;;
69172;SDS011;56280;49.662;8.408;2022-08-01T06:31:29;4.20;;;1.40;;
69172;SDS011;56280;49.662;8.408;2022-08-01T06:33:56;2.92;;;1.40;;
69172;SDS011;56280;49.662;8.408;2022-08-01T06:36:22;3.70;;;1.40;;
69172;SDS011;56280;49.662;8.408;2022-08-01T06:38:47;4.10;;;1.40;;
69172;SDS011;56280;49.662;8.408;2022-08-01T06:41:12;4.30;;;1.70;;
69172;SDS011;56280;49.662;8.408;2022-08-01T06:43:38;3.23;;;1.40;;
69172;SDS011;56280;49.662;8.408;2022-08-01T06:46:03;4.67;;;1.50;;
69172;SDS011;56280;49.662;8.408;2022-08-01T06:48:29;3.35;;;1.35;;
69172;SDS011;56280;49.662;8.408;2022-08-01T06:50:54;4.30;;;1.37;;
69172;SDS011;56280;49.662;8.408;2022-08-01T06:53:33;3.13;;;1.10;;
69172;SDS011;56280;49.662;8.408;2022-08-01T06:55:59;3.25;;;1.30;;
69172;SDS011;56280;49.662;8.408;2022-08-01T06:58:24;3.07;;;1.30;;
69172;SDS011;56280;49.662;8.408;2022-08-01T07:00:50;2.70;;;1.20;;
69172;SDS011;56280;49.662;8.408;2022-08-01T07:03:15;4.07;;;1.60;;
69172;SDS011;56280;49.662;8.408;2022-08-01T07:05:40;3.10;;;1.60;;
69172;SDS011;56280;49.662;8.408;2022-08-01T07:08:06;3.43;;;1.60;;
69172;SDS011;56280;49.662;8.408;2022-08-01T07:10:31;2.67;;;1.40;;
69172;SDS011;56280;49.662;8.408;2022-08-01T07:12:56;4.22;;;1.80;;
69172;SDS011;56280;49.662;8.408;2022-08-01T07:15:22;4.30;;;1.63;;
69172;SDS011;56280;49.662;8.408;2022-08-01T07:17:51;4.63;;;1.83;;
69172;SDS011;56280;49.662;8.408;2022-08-01T07:20:16;2.95;;;1.52;;
69172;SDS011;56280;49.662;8.408;2022-08-01T07:22:41;3.50;;;2.10;;
69172;SDS011;56280;49.662;8.408;2022-08-01T07:25:07;2.77;;;1.60;;
69172;SDS011;56280;49.662;8.408;2022-08-01T07:27:33;3.08;;;1.70;;
69172;SDS011;56280;49.662;8.408;2022-08-01T07:29:59;3.03;;;1.70;;
69172;SDS011;56280;49.662;8.408;2022-08-01T07:32:24;2.92;;;1.80;;
69172;SDS011;56280;49.662;8.408;2022-08-01T07:34:50;3.00;;;1.90;;
69172;SDS011;56280;49.662;8.408;2022-08-01T07:37:15;4.00;;;1.60;;
69172;SDS011;56280;49.662;8.408;2022-08-01T07:39:41;3.50;;;2.00;;
69172;SDS011;56280;49.662;8.408;2022-08-01T07:42:06;4.00;;;2.20;;
69172;SDS011;56280;49.662;8.408;2022-08-01T07:44:32;3.10;;;1.80;;
69172;SDS011;56280;49.662;8.408;2022-08-01T07:46:57;5.53;;;2.30;;
69172;SDS011;56280;49.662;8.408;2022-08-01T07:49:22;3.17;;;2.30;;
69172;SDS011;56280;49.662;8.408;2022-08-01T07:51:48;4.03;;;2.30;;
69172;SDS011;56280;49.662;8.408;2022-08-01T07:54:13;4.45;;;2.40;;
69172;SDS011;56280;49.662;8.408;2022-08-01T07:56:39;3.70;;;2.10;;
69172;SDS011;56280;49.662;8.408;2022-08-01T07:59:04;4.37;;;2.10;;
69172;SDS011;56280;49.662;8.408;2022-08-01T08:01:29;6.50;;;2.00;;
69172;SDS011;56280;49.662;8.408;2022-08-01T08:03:54;3.33;;;2.40;;
69172;SDS011;56280;49.662;8.408;2022-08-01T08:06:20;3.73;;;2.40;;
69172;SDS011;56280;49.662;8.408;2022-08-01T08:08:45;3.43;;;2.20;;
69172;SDS011;56280;49.662;8.408;2022-08-01T08:11:10;3.30;;;2.20;;
69172;SDS011;56280;49.662;8.408;2022-08-01T08:13:36;4.10;;;2.20;;
69172;SDS011;56280;49.662;8.408;2022-08-01T08:16:01;4.45;;;2.53;;
69172;SDS011;56280;49.662;8.408;2022-08-01T08:18:26;3.93;;;2.00;;
69172;SDS011;56280;49.662;8.408;2022-08-01T08:20:51;3.67;;;2.40;;
69172;SDS011;56280;49.662;8.408;2022-08-01T08:23:17;3.87;;;2.83;;
69172;SDS011;56280;49.662;8.408;2022-08-01T08:26:01;3.70;;;2.03;;
69172;SDS011;56280;49.662;8.408;2022-08-01T08:28:26;3.90;;;1.83;;
69172;SDS011;56280;49.662;8.408;2022-08-01T08:30:51;4.63;;;2.23;;
69172;SDS011;56280;49.662;8.408;2022-08-01T08:33:17;3.45;;;2.00;;
69172;SDS011;56280;49.662;8.408;2022-08-01T08:35:43;5.17;;;2.40;;
69172;SDS011;56280;49.662;8.408;2022-08-01T08:38:08;3.80;;;2.20;;
69172;SDS011;56280;49.662;8.408;2022-08-01T08:40:35;4.83;;;2.20;;
69172;SDS011;56280;49.662;8.408;2022-08-01T08:43:03;3.80;;;2.20;;
69172;SDS011;56280;49.662;8.408;2022-08-01T08:45:30;3.78;;;2.00;;
69172;SDS011;56280;49.662;8.408;2022-08-01T08:47:56;3.83;;;2.40;;
69172;SDS011;56280;49.662;8.408;2022-08-01T08:50:22;3.38;;;2.08;;
69172;SDS011;56280;49.662;8.408;2022-08-01T08:52:49;3.67;;;2.10;;
69172;SDS011;56280;49.662;8.408;2022-08-01T08:55:17;3.37;;;2.13;;
69172;SDS011;56280;49.662;8.408;2022-08-01T08:57:43;4.97;;;1.95;;
69172;SDS011;56280;49.662;8.408;2022-08-01T09:00:09;3.63;;;2.47;;
69172;SDS011;56280;49.662;8.408;2022-08-01T09:02:39;4.95;;;2.55;;
69172;SDS011;56280;49.662;8.408;2022-08-01T09:05:07;3.72;;;2.50;;
69172;SDS011;56280;49.662;8.408;2022-08-01T09:07:33;4.57;;;2.23;;
69172;SDS011;56280;49.662;8.408;2022-08-01T09:09:58;4.03;;;2.67;;
69172;SDS011;56280;49.662;8.408;2022-08-01T09:12:23;4.33;;;2.30;;
69172;SDS011;56280;49.662;8.408;2022-08-01T09:14:48;4.47;;;2.50;;
69172;SDS011;56280;49.662;8.408;2022-08-01T09:17:15;4.32;;;2.40;;
69172;SDS011;56280;49.662;8.408;2022-08-01T09:19:42;3.70;;;2.20;;
69172;SDS011;56280;49.662;8.408;2022-08-01T09:22:18;4.18;;;2.55;;
69172;SDS011;56280;49.662;8.408;2022-08-01T09:27:40;3.45;;;2.13;;
69172;SDS011;56280;49.662;8.408;2022-08-01T09:30:13;3.38;;;2.47;;
69172;SDS011;56280;49.662;8.408;2022-08-01T09:35:29;4.10;;;2.28;;
69172;SDS011;56280;49.662;8.408;2022-08-01T09:38:20;2.80;;;2.00;;
69172;SDS011;56280;49.662;8.408;2022-08-01T09:40:47;3.67;;;2.25;;
69172;SDS011;56280;49.662;8.408;2022-08-01T09:43:23;4.53;;;2.33;;
69172;SDS011;56280;49.662;8.408;2022-08-01T09:45:50;4.18;;;2.50;;
69172;SDS011;56280;49.662;8.408;2022-08-01T09:48:16;3.90;;;2.55;;
69172;SDS011;56280;49.662;8.408;2022-08-01T09:50:42;4.43;;;2.27;;
69172;SDS011;56280;49.662;8.408;2022-08-01T09:53:09;4.85;;;2.50;;
69172;SDS011;56280;49.662;8.408;2022-08-01T09:55:35;4.50;;;2.35;;
69172;SDS011;56280;49.662;8.408;2022-08-01T09:58:00;4.67;;;2.50;;
69172;SDS011;56280;49.662;8.408;2022-08-01T10:00:26;3.88;;;2.40;;
69172;SDS011;56280;49.662;8.408;2022-08-01T10:02:52;4.10;;;2.60;;
69172;SDS011;56280;49.662;8.408;2022-08-01T10:05:18;3.67;;;2.50;;
69172;SDS011;56280;49.662;8.408;2022-08-01T10:07:56;3.92;;;2.53;;
69172;SDS011;56280;49.662;8.408;2022-08-01T10:10:24;3.60;;;2.20;;
69172;SDS011;56280;49.662;8.408;2022-08-01T10:12:49;5.20;;;2.80;;
69172;SDS011;56280;49.662;8.408;2022-08-01T10:15:17;5.20;;;2.40;;
69172;SDS011;56280;49.662;8.408;2022-08-01T10:17:46;3.70;;;2.20;;
69172;SDS011;56280;49.662;8.408;2022-08-01T10:20:20;4.17;;;2.23;;
69172;SDS011;56280;49.662;8.408;2022-08-01T10:22:47;4.32;;;2.40;;
69172;SDS011;56280;49.662;8.408;2022-08-01T10:25:14;5.25;;;2.58;;
69172;SDS011;56280;49.662;8.408;2022-08-01T10:27:43;3.60;;;2.40;;
69172;SDS011;56280;49.662;8.408;2022-08-01T10:30:12;4.90;;;2.63;;
69172;SDS011;56280;49.662;8.408;2022-08-01T10:32:37;5.30;;;2.50;;
69172;SDS011;56280;49.662;8.408;2022-08-01T10:35:04;4.28;;;2.63;;
69172;SDS011;56280;49.662;8.408;2022-08-01T10:37:31;3.65;;;2.70;;
69172;SDS011;56280;49.662;8.408;2022-08-01T10:39:59;3.73;;;2.10;;
69172;SDS011;56280;49.662;8.408;2022-08-01T10:42:25;3.53;;;2.10;;
69172;SDS011;56280;49.662;8.408;2022-08-01T10:44:50;4.23;;;2.30;;
69172;SDS011;56280;49.662;8.408;2022-08-01T10:47:38;3.85;;;2.08;;
69172;SDS011;56280;49.662;8.408;2022-08-01T10:55:46;5.15;;;2.22;;
69172;SDS011;56280;49.662;8.408;2022-08-01T10:58:20;3.43;;;2.00;;
69172;SDS011;56280;49.662;8.408;2022-08-01T11:04:24;3.20;;;1.95;;
69172;SDS011;56280;49.662;8.408;2022-08-01T11:06:39;3.92;;;1.92;;
69172;SDS011;56280;49.662;8.408;2022-08-01T11:11:56;3.30;;;2.10;;
69172;SDS011;56280;49.662;8.408;2022-08-01T11:17:32;2.85;;;1.90;;
69172;SDS011;56280;49.662;8.408;2022-08-01T11:20:04;3.17;;;1.80;;
69172;SDS011;56280;49.662;8.408;2022-08-01T11:22:32;3.55;;;2.30;;
69172;SDS011;56280;49.662;8.408;2022-08-01T11:25:23;3.37;;;1.80;;
69172;SDS011;56280;49.662;8.408;2022-08-01T11:27:48;2.77;;;1.90;;
69172;SDS011;56280;49.662;8.408;2022-08-01T11:32:49;3.10;;;1.80;;
69172;SDS011;56280;49.662;8.408;2022-08-01T11:35:17;3.00;;;1.90;;
69172;SDS011;56280;49.662;8.408;2022-08-01T11:37:45;3.63;;;2.33;;
69172;SDS011;56280;49.662;8.408;2022-08-01T11:43:04;4.40;;;2.10;;
69172;SDS011;56280;49.662;8.408;2022-08-01T11:48:19;2.93;;;1.70;;
69172;SDS011;56280;49.662;8.408;2022-08-01T11:50:45;3.15;;;1.80;;
69172;SDS011;56280;49.662;8.408;2022-08-01T11:53:11;4.50;;;1.80;;
69172;SDS011;56280;49.662;8.408;2022-08-01T11:55:43;2.83;;;1.70;;
69172;SDS011;56280;49.662;8.408;2022-08-01T11:58:16;3.80;;;2.22;;
69172;SDS011;56280;49.662;8.408;2022-08-01T12:00:55;2.50;;;1.65;;
69172;SDS011;56280;49.662;8.408;2022-08-01T12:03:25;4.32;;;1.92;;
69172;SDS011;56280;49.662;8.408;2022-08-01T12:05:53;3.70;;;1.87;;
69172;SDS011;56280;49.662;8.408;2022-08-01T12:08:28;3.33;;;1.90;;
69172;SDS011;56280;49.662;8.408;2022-08-01T12:10:57;3.05;;;1.90;;
69172;SDS011;56280;49.662;8.408;2022-08-01T12:13:23;4.00;;;1.63;;
69172;SDS011;56280;49.662;8.408;2022-08-01T12:15:48;3.40;;;1.60;;
69172;SDS011;56280;49.662;8.408;2022-08-01T12:18:15;2.80;;;1.70;;
69172;SDS011;56280;49.662;8.408;2022-08-01T12:20:42;2.70;;;1.70;;
69172;SDS011;56280;49.662;8.408;2022-08-01T12:23:11;3.13;;;1.80;;
69172;SDS011;56280;49.662;8.408;2022-08-01T12:25:38;3.33;;;1.80;;
69172;SDS011;56280;49.662;8.408;2022-08-01T12:28:06;4.32;;;2.08;;
69172;SDS011;56280;49.662;8.408;2022-08-01T12:30:33;4.32;;;1.80;;
69172;SDS011;56280;49.662;8.408;2022-08-01T12:33:00;4.88;;;2.00;;
69172;SDS011;56280;49.662;8.408;2022-08-01T12:35:27;2.65;;;1.52;;
69172;SDS011;56280;49.662;8.408;2022-08-01T12:37:54;3.92;;;1.83;;
69172;SDS011;56280;49.662;8.408;2022-08-01T12:40:28;3.47;;;1.80;;
69172;SDS011;56280;49.662;8.408;2022-08-01T12:45:25;2.60;;;1.67;;
69172;SDS011;56280;49.662;8.408;2022-08-01T12:47:52;3.20;;;1.70;;
69172;SDS011;56280;49.662;8.408;2022-08-01T12:50:20;3.10;;;1.80;;
69172;SDS011;56280;49.662;8.408;2022-08-01T12:52:47;3.45;;;1.85;;
69172;SDS011;56280;49.662;8.408;2022-08-01T12:55:15;4.00;;;1.90;;
69172;SDS011;56280;49.662;8.408;2022-08-01T12:57:46;3.10;;;1.83;;
69172;SDS011;56280;49.662;8.408;2022-08-01T13:02:49;3.63;;;1.77;;
69172;SDS011;56280;49.662;8.408;2022-08-01T13:05:24;3.65;;;1.85;;
69172;SDS011;56280;49.662;8.408;2022-08-01T13:07:50;3.33;;;1.60;;
69172;SDS011;56280;49.662;8.408;2022-08-01T13:10:29;4.77;;;1.60;;
69172;SDS011;56280;49.662;8.408;2022-08-01T13:12:56;3.58;;;1.60;;
69172;SDS011;56280;49.662;8.408;2022-08-01T13:15:24;4.75;;;1.85;;
69172;SDS011;56280;49.662;8.408;2022-08-01T13:17:58;4.93;;;1.80;;
69172;SDS011;56280;49.662;8.408;2022-08-01T13:20:29;3.17;;;1.55;;
69172;SDS011;56280;49.662;8.408;2022-08-01T13:23:11;2.72;;;1.60;;
69172;SDS011;56280;49.662;8.408;2022-08-01T13:25:49;5.20;;;1.80;;
69172;SDS011;56280;49.662;8.408;2022-08-01T13:28:19;3.97;;;1.60;;
69172;SDS011;56280;49.662;8.408;2022-08-01T13:30:54;3.17;;;1.63;;
69172;SDS011;56280;49.662;8.408;2022-08-01T13:33:21;3.75;;;1.23;;
69172;SDS011;56280;49.662;8.408;2022-08-01T13:35:48;2.70;;;1.30;;
69172;SDS011;56280;49.662;8.408;2022-08-01T13:38:15;3.08;;;1.40;;
69172;SDS011;56280;49.662;8.408;2022-08-01T13:40:40;3.37;;;1.40;;
69172;SDS011;56280;49.662;8.408;2022-08-01T13:43:05;3.40;;;1.40;;
69172;SDS011;56280;49.662;8.408;2022-08-01T13:45:30;3.00;;;1.30;;
69172;SDS011;56280;49.662;8.408;2022-08-01T13:47:56;2.90;;;1.30;;
69172;SDS011;56280;49.662;8.408;2022-08-01T13:50:21;3.23;;;1.40;;
69172;SDS011;56280;49.662;8.408;2022-08-01T13:52:46;3.50;;;1.40;;
69172;SDS011;56280;49.662;8.408;2022-08-01T13:55:12;2.70;;;1.40;;
69172;SDS011;56280;49.662;8.408;2022-08-01T13:57:37;3.38;;;1.38;;
69172;SDS011;56280;49.662;8.408;2022-08-01T14:00:06;2.93;;;1.30;;
69172;SDS011;56280;49.662;8.408;2022-08-01T14:02:33;2.80;;;1.45;;
69172;SDS011;56280;49.662;8.408;2022-08-01T14:04:59;2.30;;;1.00;;
69172;SDS011;56280;49.662;8.408;2022-08-01T14:07:24;3.50;;;1.40;;
69172;SDS011;56280;49.662;8.408;2022-08-01T14:09:49;2.60;;;1.13;;
69172;SDS011;56280;49.662;8.408;2022-08-01T14:12:15;4.32;;;1.40;;
69172;SDS011;56280;49.662;8.408;2022-08-01T14:14:40;3.13;;;1.20;;
69172;SDS011;56280;49.662;8.408;2022-08-01T14:17:05;3.17;;;1.20;;
69172;SDS011;56280;49.662;8.408;2022-08-01T14:19:31;2.40;;;1.27;;
69172;SDS011;56280;49.662;8.408;2022-08-01T14:21:56;3.90;;;1.40;;
69172;SDS011;56280;49.662;8.408;2022-08-01T14:24:22;3.17;;;1.33;;
69172;SDS011;56280;49.662;8.408;2022-08-01T14:26:48;3.42;;;1.50;;
69172;SDS011;56280;49.662;8.408;2022-08-01T14:29:14;3.28;;;1.30;;
69172;SDS011;56280;49.662;8.408;2022-08-01T14:31:39;4.20;;;1.40;;
69172;SDS011;56280;49.662;8.408;2022-08-01T14:34:05;3.20;;;1.47;;
69172;SDS011;56280;49.662;8.408;2022-08-01T14:36:30;4.63;;;1.50;;
69172;SDS011;56280;49.662;8.408;2022-08-01T14:38:55;2.53;;;1.20;;
69172;SDS011;56280;49.662;8.408;2022-08-01T14:41:21;4.70;;;1.57;;
69172;SDS011;56280;49.662;8.408;2022-08-01T14:43:46;5.17;;;1.67;;
69172;SDS011;56280;49.662;8.408;2022-08-01T14:46:12;2.90;;;1.43;;
69172;SDS011;56280;49.662;8.408;2022-08-01T14:48:37;2.97;;;1.30;;
69172;SDS011;56280;49.662;8.408;2022-08-01T14:51:03;4.87;;;1.40;;
69172;SDS011;56280;49.662;8.408;2022-08-01T14:53:29;3.53;;;1.50;;
69172;SDS011;56280;49.662;8.408;2022-08-01T14:55:55;3.60;;;1.33;;
69172;SDS011;56280;49.662;8.408;2022-08-01T14:58:20;4.30;;;1.50;;
69172;SDS011;56280;49.662;8.408;2022-08-01T15:00:45;4.67;;;1.50;;
69172;SDS011;56280;49.662;8.408;2022-08-01T15:03:11;3.00;;;1.50;;
69172;SDS011;56280;49.662;8.408;2022-08-01T15:05:37;3.28;;;1.50;;
69172;SDS011;56280;49.662;8.408;2022-08-01T15:08:03;5.27;;;1.73;;
69172;SDS011;56280;49.662;8.408;2022-08-01T15:10:28;3.03;;;1.85;;
69172;SDS011;56280;49.662;8.408;2022-08-01T15:12:54;2.83;;;1.58;;
69172;SDS011;56280;49.662;8.408;2022-08-01T15:15:19;3.07;;;1.50;;
69172;SDS011;56280;49.662;8.408;2022-08-01T15:17:44;4.37;;;1.60;;
69172;SDS011;56280;49.662;8.408;2022-08-01T15:20:10;3.07;;;1.50;;
69172;SDS011;56280;49.662;8.408;2022-08-01T15:22:35;4.03;;;1.83;;
69172;SDS011;56280;49.662;8.408;2022-08-01T15:25:01;3.13;;;1.73;;
69172;SDS011;56280;49.662;8.408;2022-08-01T15:27:27;4.57;;;1.52;;
69172;SDS011;56280;49.662;8.408;2022-08-01T15:29:54;4.70;;;1.75;;
69172;SDS011;56280;49.662;8.408;2022-08-01T15:32:20;4.90;;;1.92;;